Time;durP1;ratioP1;P1;durP2;ratioP2;P2;SDS_P1;SDS_P2;PMS_P1;PMS_P2;Temp;Humidity;BMP_temperature;BMP_pressure;BME280_temperature;BME280_humidity;BME280_pressure;Samples;Min_cycle;Max_cycle;Signal;HPM_P1;HPM_P2
2024/01/06 00:02:08;;;;;;;0.10;0.10;;;3.50;90.30;;;;;;5038518;28;20040;-70
2024/01/06 00:04:34;;;;;;;0.08;0.08;;;3.50;90.30;;;;;;5038514;28;20037;-70
2024/01/06 00:06:59;;;;;;;0.10;0.10;;;3.40;90.10;;;;;;5038639;28;20045;-70
2024/01/06 00:09:25;;;;;;;0.52;0.50;;;3.40;90.20;;;;;;5040597;28;20040;-70
2024/01/06 00:11:51;;;;;;;0.00;0.00;;;3.50;90.30;;;;;;5039927;28;20126;-70
2024/01/06 00:14:16;;;;;;;1.10;1.05;;;3.50;90.00;;;;;;5039128;28;20064;-70
2024/01/06 00:16:42;;;;;;;0.20;0.20;;;3.40;89.90;;;;;;5039486;28;20535;-70
2024/01/06 00:19:08;;;;;;;0.00;0.00;;;3.40;89.70;;;;;;5040021;28;20052;-70
2024/01/06 00:21:33;;;;;;;0.10;0.10;;;3.40;90.00;;;;;;5038837;28;20053;-70
2024/01/06 00:23:59;;;;;;;0.00;0.00;;;3.40;90.00;;;;;;5039103;28;20079;-70
2024/01/06 00:26:25;;;;;;;0.10;0.10;;;3.30;90.00;;;;;;5040003;28;20737;-70
2024/01/06 00:28:50;;;;;;;0.00;0.00;;;3.30;89.80;;;;;;5038293;28;20037;-70
2024/01/06 00:31:17;;;;;;;0.73;0.73;;;3.20;89.60;;;;;;5039303;28;20036;-70
2024/01/06 00:33:43;;;;;;;0.10;0.10;;;3.30;89.70;;;;;;5037773;28;20123;-70
2024/01/06 00:36:09;;;;;;;0.10;0.10;;;3.30;89.80;;;;;;5041613;28;20051;-70
2024/01/06 00:38:35;;;;;;;0.20;0.20;;;3.30;89.60;;;;;;5042839;28;20714;-70
2024/01/06 00:41:01;;;;;;;0.10;0.10;;;3.30;89.70;;;;;;5042947;28;20056;-70
2024/01/06 00:43:27;;;;;;;0.00;0.00;;;3.20;89.60;;;;;;5040721;28;20052;-70
2024/01/06 00:45:52;;;;;;;0.10;0.10;;;3.20;89.50;;;;;;5042792;28;20060;-70
2024/01/06 00:48:18;;;;;;;0.30;0.25;;;3.20;89.50;;;;;;5043223;28;20053;-70
2024/01/06 00:50:44;;;;;;;0.00;0.00;;;3.10;89.60;;;;;;5042529;28;20040;-70
2024/01/06 00:53:09;;;;;;;3.03;2.72;;;3.10;89.40;;;;;;5042855;28;20064;-70
2024/01/06 00:55:35;;;;;;;0.10;0.10;;;3.10;89.70;;;;;;5043223;28;20083;-70
2024/01/06 00:58:00;;;;;;;0.30;0.30;;;3.20;89.60;;;;;;5041942;28;20037;-70
2024/01/06 01:00:27;;;;;;;0.28;0.28;;;3.00;89.60;;;;;;5042772;28;20044;-70
2024/01/06 01:02:53;;;;;;;0.05;0.05;;;3.10;89.70;;;;;;5041017;28;20060;-70
2024/01/06 01:05:19;;;;;;;0.00;0.00;;;3.10;89.90;;;;;;5024355;28;20447;-70
2024/01/06 01:07:44;;;;;;;0.47;0.47;;;3.00;89.70;;;;;;5043750;28;20044;-70
2024/01/06 01:10:10;;;;;;;0.17;0.17;;;3.00;90.00;;;;;;5044253;28;20045;-70
2024/01/06 01:12:36;;;;;;;0.00;0.00;;;3.00;89.90;;;;;;5044876;28;20124;-70
2024/01/06 01:15:02;;;;;;;0.00;0.00;;;2.90;90.10;;;;;;5045471;28;20542;-70
2024/01/06 01:17:27;;;;;;;0.00;0.00;;;3.00;90.20;;;;;;5044074;28;20052;-70
2024/01/06 01:19:53;;;;;;;3.00;2.60;;;3.00;89.90;;;;;;5044825;28;20053;-69
2024/01/06 01:22:18;;;;;;;2.13;0.85;;;3.00;89.80;;;;;;5044945;28;20056;-70
2024/01/06 01:24:44;;;;;;;0.10;0.10;;;3.00;89.80;;;;;;5044420;28;20108;-70
2024/01/06 01:27:10;;;;;;;0.00;0.00;;;3.00;89.80;;;;;;5044678;28;20055;-70
2024/01/06 01:29:36;;;;;;;0.10;0.10;;;2.90;89.70;;;;;;5044490;28;20052;-69
2024/01/06 01:32:01;;;;;;;0.22;0.22;;;2.90;90.00;;;;;;5044129;28;20194;-70
2024/01/06 01:34:27;;;;;;;0.00;0.00;;;2.90;90.10;;;;;;5044770;28;20828;-70
2024/01/06 01:36:52;;;;;;;0.10;0.10;;;2.90;90.30;;;;;;5043887;28;20041;-69
2024/01/06 01:39:18;;;;;;;0.00;0.00;;;2.90;90.30;;;;;;5044133;28;20053;-70
2024/01/06 01:41:44;;;;;;;0.00;0.00;;;2.90;90.40;;;;;;5045008;28;20048;-70
2024/01/06 01:44:09;;;;;;;0.40;0.40;;;2.90;90.40;;;;;;5043857;28;20037;-70
2024/01/06 01:46:35;;;;;;;0.00;0.00;;;3.00;90.40;;;;;;5043631;28;20925;-70
2024/01/06 01:49:02;;;;;;;0.00;0.00;;;3.00;90.00;;;;;;5044153;28;20135;-70
2024/01/06 01:51:32;;;;;;;0.85;0.85;;;3.00;90.30;;;;;;5044304;28;20053;-70
2024/01/06 01:54:00;;;;;;;0.10;0.10;;;3.10;90.00;;;;;;5043440;28;20095;-70
2024/01/06 01:56:27;;;;;;;0.00;0.00;;;2.90;90.00;;;;;;5043678;28;20048;-70
2024/01/06 01:58:53;;;;;;;0.52;0.52;;;3.00;89.90;;;;;;5043903;28;20075;-70
2024/01/06 02:01:19;;;;;;;1.40;1.30;;;3.00;89.80;;;;;;5045040;28;20094;-70
2024/01/06 02:03:45;;;;;;;0.00;0.00;;;3.00;89.70;;;;;;5047670;28;20860;-70
2024/01/06 02:06:11;;;;;;;0.17;0.17;;;3.00;89.60;;;;;;5047673;28;20446;-70
2024/01/06 02:08:37;;;;;;;0.00;0.00;;;2.90;89.40;;;;;;5047582;28;20436;-70
2024/01/06 02:11:04;;;;;;;0.25;0.25;;;2.80;89.70;;;;;;5047281;28;20040;-70
2024/01/06 02:13:37;;;;;;;0.00;0.00;;;2.80;90.00;;;;;;5046531;28;20033;-70
2024/01/06 02:16:04;;;;;;;0.30;0.30;;;2.80;90.10;;;;;;5047871;28;20045;-70
2024/01/06 02:18:33;;;;;;;0.10;0.10;;;2.90;90.00;;;;;;5047551;28;20048;-70
2024/01/06 02:21:00;;;;;;;0.10;0.10;;;2.90;90.00;;;;;;5046916;28;20045;-70
2024/01/06 02:23:26;;;;;;;0.00;0.00;;;3.00;90.10;;;;;;5046560;28;20048;-70
2024/01/06 02:25:52;;;;;;;0.00;0.00;;;2.80;90.00;;;;;;5047172;28;20206;-70
2024/01/06 02:28:18;;;;;;;0.00;0.00;;;3.00;90.00;;;;;;5045754;28;20052;-70
2024/01/06 02:30:44;;;;;;;0.00;0.00;;;2.80;90.10;;;;;;5047756;28;20879;-70
2024/01/06 02:33:09;;;;;;;0.00;0.00;;;2.80;90.40;;;;;;5047508;28;20458;-70
2024/01/06 02:35:36;;;;;;;0.00;0.00;;;2.80;90.50;;;;;;5046376;28;20033;-70
2024/01/06 02:38:01;;;;;;;0.10;0.10;;;2.90;90.30;;;;;;5047435;28;20072;-70
2024/01/06 02:40:27;;;;;;;0.05;0.05;;;2.90;90.20;;;;;;5046732;28;20095;-70
2024/01/06 02:42:53;;;;;;;0.20;0.20;;;2.90;90.20;;;;;;5047696;28;20049;-70
2024/01/06 02:45:19;;;;;;;0.00;0.00;;;2.90;90.40;;;;;;5047093;28;20560;-70
2024/01/06 02:47:44;;;;;;;0.10;0.10;;;2.90;90.40;;;;;;5046774;28;20040;-70
2024/01/06 02:50:10;;;;;;;0.15;0.15;;;2.90;90.50;;;;;;5047122;28;20049;-70
2024/01/06 02:52:36;;;;;;;0.00;0.00;;;3.00;90.30;;;;;;5047470;28;20060;-70
2024/01/06 02:55:02;;;;;;;0.10;0.10;;;3.10;90.30;;;;;;5029830;28;20056;-70
2024/01/06 02:57:29;;;;;;;0.10;0.10;;;2.90;90.20;;;;;;5046977;28;20049;-69
2024/01/06 02:59:55;;;;;;;0.00;0.00;;;2.80;90.60;;;;;;5029519;28;20095;-70
2024/01/06 03:02:20;;;;;;;0.10;0.10;;;3.00;90.70;;;;;;5043995;28;20060;-70
2024/01/06 03:04:46;;;;;;;0.20;0.20;;;2.90;90.40;;;;;;5034144;28;20056;-70
2024/01/06 03:07:11;;;;;;;0.10;0.10;;;3.00;90.40;;;;;;5028855;28;20048;-69
2024/01/06 03:09:38;;;;;;;0.10;0.10;;;2.90;90.40;;;;;;5046702;28;20049;-70
2024/01/06 03:12:07;;;;;;;0.05;0.05;;;2.90;90.50;;;;;;5046756;28;20062;-69
2024/01/06 03:14:35;;;;;;;0.10;0.10;;;3.00;90.50;;;;;;5029020;28;20041;-70
2024/01/06 03:17:01;;;;;;;0.10;0.10;;;3.00;90.40;;;;;;5046920;28;20139;-70
2024/01/06 03:19:27;;;;;;;0.90;0.85;;;2.90;90.60;;;;;;5029671;28;20065;-70
2024/01/06 03:21:53;;;;;;;0.10;0.10;;;2.80;90.70;;;;;;5046302;28;20043;-70
2024/01/06 03:24:23;;;;;;;0.10;0.10;;;2.90;90.70;;;;;;5045605;28;20049;-70
2024/01/06 03:26:49;;;;;;;0.00;0.00;;;3.00;90.30;;;;;;5039116;28;20068;-69
2024/01/06 03:29:15;;;;;;;0.00;0.00;;;3.10;90.10;;;;;;5045748;28;20072;-70
2024/01/06 03:31:44;;;;;;;0.00;0.00;;;3.00;90.00;;;;;;5030217;28;20048;-70
2024/01/06 03:34:11;;;;;;;0.08;0.08;;;3.10;90.20;;;;;;5029994;28;20395;-70
2024/01/06 03:36:37;;;;;;;0.00;0.00;;;3.00;90.10;;;;;;5031603;28;20503;-70
2024/01/06 03:39:03;;;;;;;0.00;0.00;;;3.00;90.00;;;;;;5044103;28;20048;-70
2024/01/06 03:41:29;;;;;;;0.00;0.00;;;2.90;89.90;;;;;;5047094;28;20057;-70
2024/01/06 03:43:54;;;;;;;0.10;0.10;;;2.90;90.20;;;;;;5047263;28;20052;-70
2024/01/06 03:46:20;;;;;;;0.10;0.10;;;3.00;90.00;;;;;;5047360;28;20051;-70
2024/01/06 03:48:45;;;;;;;0.20;0.20;;;2.90;90.10;;;;;;5036115;28;20080;-70
2024/01/06 03:51:12;;;;;;;0.08;0.08;;;3.00;90.50;;;;;;5046266;28;20091;-70
2024/01/06 03:53:38;;;;;;;0.25;0.20;;;3.00;89.90;;;;;;5047196;28;20045;-70
2024/01/06 03:56:04;;;;;;;0.10;0.10;;;2.90;90.10;;;;;;5047553;28;20565;-70
2024/01/06 03:58:30;;;;;;;0.00;0.00;;;2.90;90.00;;;;;;5047479;28;20049;-70
2024/01/06 04:00:55;;;;;;;0.10;0.10;;;2.90;90.10;;;;;;5047299;28;20076;-70
2024/01/06 04:03:21;;;;;;;0.00;0.00;;;2.90;90.30;;;;;;5046991;28;20033;-70
2024/01/06 04:05:47;;;;;;;0.43;0.43;;;2.90;90.30;;;;;;5046385;28;20040;-69
2024/01/06 04:08:12;;;;;;;0.00;0.00;;;2.90;90.40;;;;;;5045322;28;20114;-70
2024/01/06 04:10:38;;;;;;;0.00;0.00;;;2.90;90.30;;;;;;5030230;28;20040;-70
2024/01/06 04:13:04;;;;;;;0.10;0.10;;;3.00;90.50;;;;;;5049876;28;20052;-69
2024/01/06 04:15:29;;;;;;;0.10;0.10;;;2.90;89.80;;;;;;5050561;28;20067;-70
2024/01/06 04:18:01;;;;;;;0.00;0.00;;;2.90;90.30;;;;;;5050597;28;20037;-70
2024/01/06 04:20:26;;;;;;;0.10;0.10;;;2.90;90.10;;;;;;5050140;28;20559;-70
2024/01/06 04:22:52;;;;;;;0.00;0.00;;;3.00;90.00;;;;;;5051218;28;20099;-70
2024/01/06 04:25:17;;;;;;;0.00;0.00;;;3.00;90.30;;;;;;5050398;28;20095;-69
2024/01/06 04:27:45;;;;;;;0.10;0.10;;;2.90;89.90;;;;;;5050874;28;20081;-70
2024/01/06 04:30:11;;;;;;;2.45;1.90;;;2.90;90.20;;;;;;5049990;28;20049;-70
2024/01/06 04:32:36;;;;;;;0.10;0.10;;;2.90;90.20;;;;;;5040999;28;20048;-70
2024/01/06 04:35:02;;;;;;;0.00;0.00;;;2.90;90.20;;;;;;5049329;28;20037;-70
2024/01/06 04:37:28;;;;;;;0.22;0.22;;;2.90;90.50;;;;;;5032575;28;20044;-70
2024/01/06 04:39:54;;;;;;;0.00;0.00;;;2.90;90.50;;;;;;5044015;28;20572;-70
2024/01/06 04:42:22;;;;;;;2.40;1.48;;;3.00;90.30;;;;;;5031068;28;20453;-70
2024/01/06 04:44:48;;;;;;;0.00;0.00;;;3.00;90.20;;;;;;5049894;28;20049;-70
2024/01/06 04:47:13;;;;;;;0.00;0.00;;;3.00;90.30;;;;;;5049784;28;20131;-69
2024/01/06 04:49:39;;;;;;;0.80;0.80;;;3.10;90.50;;;;;;5049614;28;20028;-70
2024/01/06 04:52:05;;;;;;;0.25;0.25;;;2.90;90.00;;;;;;5030428;28;20390;-71
2024/01/06 04:54:30;;;;;;;0.00;0.00;;;2.90;90.30;;;;;;5046312;28;20044;-70
2024/01/06 04:56:56;;;;;;;1.90;1.67;;;3.00;90.10;;;;;;5031359;28;20654;-71
2024/01/06 04:59:22;;;;;;;0.10;0.10;;;2.90;90.10;;;;;;5031318;28;20120;-70
2024/01/06 05:01:48;;;;;;;0.10;0.10;;;2.90;90.10;;;;;;5046760;28;20647;-71
2024/01/06 05:04:13;;;;;;;0.00;0.00;;;2.90;90.00;;;;;;5048338;28;20072;-70
2024/01/06 05:06:39;;;;;;;1.75;0.73;;;2.90;90.30;;;;;;5048875;28;20133;-70
2024/01/06 05:09:04;;;;;;;0.00;0.00;;;2.90;90.20;;;;;;5048602;28;20067;-71
2024/01/06 05:11:30;;;;;;;0.00;0.00;;;2.90;90.20;;;;;;5039671;28;20521;-70
2024/01/06 05:13:56;;;;;;;0.00;0.00;;;2.90;90.10;;;;;;5046882;28;20052;-70
2024/01/06 05:16:21;;;;;;;0.00;0.00;;;2.90;90.10;;;;;;5048046;28;20045;-70
2024/01/06 05:18:47;;;;;;;0.00;0.00;;;2.90;90.00;;;;;;5048358;28;20152;-71
2024/01/06 05:21:13;;;;;;;0.20;0.20;;;2.90;90.10;;;;;;5047939;28;20044;-71
2024/01/06 05:23:38;;;;;;;0.00;0.00;;;2.90;90.00;;;;;;5047322;28;20063;-71
2024/01/06 05:26:04;;;;;;;0.10;0.10;;;3.00;89.90;;;;;;5048594;28;20556;-70
2024/01/06 05:28:30;;;;;;;0.10;0.10;;;2.90;89.70;;;;;;5047543;28;20041;-71
2024/01/06 05:30:56;;;;;;;0.00;0.00;;;2.90;89.80;;;;;;5047674;28;20041;-70
2024/01/06 05:33:22;;;;;;;0.00;0.00;;;3.00;89.80;;;;;;5046925;28;20043;-70
2024/01/06 05:35:48;;;;;;;0.13;0.13;;;2.90;89.70;;;;;;5032847;28;20426;-71
2024/01/06 05:38:13;;;;;;;0.00;0.00;;;3.00;89.70;;;;;;5047069;28;20532;-71
2024/01/06 05:40:39;;;;;;;0.10;0.10;;;2.90;89.80;;;;;;5020899;28;20093;-71
2024/01/06 05:43:05;;;;;;;0.00;0.00;;;3.00;89.80;;;;;;5010653;28;20442;-71
2024/01/06 05:45:31;;;;;;;0.00;0.00;;;3.10;89.70;;;;;;5020089;28;20049;-71
2024/01/06 05:47:57;;;;;;;0.00;0.00;;;3.00;89.70;;;;;;5012500;28;20504;-71
2024/01/06 05:50:22;;;;;;;0.20;0.20;;;3.10;89.60;;;;;;5018307;28;20045;-71
2024/01/06 05:52:48;;;;;;;0.20;0.20;;;3.10;89.60;;;;;;5012458;28;20041;-70
2024/01/06 05:55:14;;;;;;;0.00;0.00;;;3.10;89.60;;;;;;5025746;28;20057;-71
2024/01/06 05:57:40;;;;;;;0.00;0.00;;;3.00;89.50;;;;;;5025067;28;20061;-71
2024/01/06 06:00:13;;;;;;;0.00;0.00;;;2.90;89.70;;;;;;5014654;28;20045;-70
2024/01/06 06:02:39;;;;;;;0.22;0.22;;;3.00;89.70;;;;;;5022045;28;20048;-71
2024/01/06 06:05:05;;;;;;;0.00;0.00;;;3.00;89.70;;;;;;5022432;28;20494;-71
2024/01/06 06:07:31;;;;;;;0.00;0.00;;;3.10;89.60;;;;;;5017018;28;20038;-71
2024/01/06 06:09:56;;;;;;;0.10;0.10;;;3.10;89.40;;;;;;5007925;28;20038;-71
2024/01/06 06:12:22;;;;;;;0.00;0.00;;;3.00;89.60;;;;;;5013706;28;20042;-70
2024/01/06 06:14:48;;;;;;;0.05;0.05;;;3.10;89.30;;;;;;5020473;28;20041;-71
2024/01/06 06:17:14;;;;;;;0.00;0.00;;;3.10;89.30;;;;;;5011936;28;20393;-72
2024/01/06 06:19:39;;;;;;;0.17;0.17;;;3.10;89.10;;;;;;5022364;28;20128;-71
2024/01/06 06:22:05;;;;;;;0.45;0.45;;;3.10;89.20;;;;;;5025733;28;20084;-70
2024/01/06 06:24:31;;;;;;;0.00;0.00;;;3.00;89.30;;;;;;5018482;28;20406;-70
2024/01/06 06:26:57;;;;;;;0.10;0.10;;;3.10;89.20;;;;;;5025049;28;20912;-70
2024/01/06 06:29:22;;;;;;;0.10;0.10;;;3.10;89.30;;;;;;5016402;28;20608;-71
2024/01/06 06:31:48;;;;;;;0.00;0.00;;;3.10;89.10;;;;;;5018821;28;20108;-70
2024/01/06 06:34:14;;;;;;;0.30;0.30;;;3.00;89.10;;;;;;5022304;28;20476;-70
2024/01/06 06:36:39;;;;;;;4.95;3.45;;;3.10;89.30;;;;;;5017923;28;20056;-71
2024/01/06 06:39:05;;;;;;;0.25;0.25;;;3.10;89.30;;;;;;5023883;28;20080;-70
2024/01/06 06:41:31;;;;;;;0.00;0.00;;;3.10;89.10;;;;;;5022522;28;20053;-72
2024/01/06 06:43:57;;;;;;;0.00;0.00;;;3.10;89.30;;;;;;5021548;28;20072;-72
2024/01/06 06:46:23;;;;;;;0.10;0.10;;;3.10;89.20;;;;;;5020902;28;20037;-71
2024/01/06 06:48:50;;;;;;;0.10;0.10;;;3.10;89.00;;;;;;5017238;28;20455;-72
2024/01/06 06:51:16;;;;;;;0.00;0.00;;;3.10;89.00;;;;;;5011372;28;20092;-72
2024/01/06 06:53:41;;;;;;;0.30;0.30;;;3.20;89.10;;;;;;5023374;28;20497;-71
2024/01/06 06:56:07;;;;;;;0.00;0.00;;;3.10;89.10;;;;;;5017205;28;20044;-72
2024/01/06 06:58:33;;;;;;;0.10;0.10;;;3.10;89.30;;;;;;5010746;28;20121;-72
2024/01/06 07:00:58;;;;;;;0.30;0.30;;;3.10;89.30;;;;;;5015400;28;20069;-72
2024/01/06 07:03:24;;;;;;;0.10;0.10;;;3.20;89.20;;;;;;5015204;28;20077;-72
2024/01/06 07:05:50;;;;;;;0.10;0.10;;;3.10;89.20;;;;;;5022917;28;20044;-72
2024/01/06 07:08:16;;;;;;;0.00;0.00;;;3.20;89.00;;;;;;5017484;28;20049;-72
2024/01/06 07:10:41;;;;;;;0.10;0.10;;;3.10;88.90;;;;;;5022623;28;20065;-72
2024/01/06 07:13:07;;;;;;;0.00;0.00;;;3.20;88.90;;;;;;5020646;28;20088;-72
2024/01/06 07:15:33;;;;;;;0.00;0.00;;;3.20;88.90;;;;;;5017038;28;20053;-71
2024/01/06 07:17:58;;;;;;;0.00;0.00;;;3.20;89.10;;;;;;5024985;28;20064;-72
2024/01/06 07:20:24;;;;;;;9.38;1.35;;;3.10;89.00;;;;;;5026811;28;20128;-72
2024/01/06 07:22:49;;;;;;;0.10;0.10;;;3.10;89.00;;;;;;5027082;28;20068;-72
2024/01/06 07:25:15;;;;;;;0.00;0.00;;;3.20;89.20;;;;;;5026529;28;20050;-72
2024/01/06 07:27:41;;;;;;;0.10;0.10;;;3.10;89.20;;;;;;5026465;28;20050;-72
2024/01/06 07:30:10;;;;;;;0.85;0.55;;;3.20;89.50;;;;;;5026849;28;20091;-71
2024/01/06 07:32:35;;;;;;;0.10;0.10;;;3.20;89.40;;;;;;5026704;28;20128;-72
2024/01/06 07:35:02;;;;;;;2.13;1.65;;;3.20;89.20;;;;;;5027011;28;20448;-71
2024/01/06 07:37:28;;;;;;;0.77;0.77;;;3.30;89.30;;;;;;5024840;28;20745;-72
2024/01/06 07:39:53;;;;;;;0.73;0.73;;;3.30;89.10;;;;;;5026332;28;20045;-71
2024/01/06 07:42:19;;;;;;;0.00;0.00;;;3.20;89.20;;;;;;5043751;28;20115;-71
2024/01/06 07:44:44;;;;;;;0.05;0.05;;;3.30;89.30;;;;;;5047246;28;20067;-71
2024/01/06 07:47:10;;;;;;;1.45;1.35;;;3.30;89.10;;;;;;5053178;28;20198;-71
2024/01/06 07:49:36;;;;;;;0.22;0.22;;;3.20;89.10;;;;;;5052384;28;20919;-71
2024/01/06 07:52:02;;;;;;;0.30;0.30;;;3.20;89.20;;;;;;5053274;28;20053;-71
2024/01/06 07:54:28;;;;;;;0.10;0.10;;;3.20;89.20;;;;;;5052440;28;20045;-71
2024/01/06 07:56:55;;;;;;;0.00;0.00;;;3.30;89.20;;;;;;5052801;28;20041;-71
2024/01/06 07:59:20;;;;;;;2.03;1.85;;;3.40;89.30;;;;;;5050185;28;20047;-71
2024/01/06 08:01:46;;;;;;;0.50;0.50;;;3.30;88.90;;;;;;5033831;28;20557;-71
2024/01/06 08:04:12;;;;;;;0.10;0.10;;;3.30;89.30;;;;;;5052251;28;20044;-71
2024/01/06 08:06:37;;;;;;;1.45;1.23;;;3.40;89.00;;;;;;5052756;28;20043;-71
2024/01/06 08:09:03;;;;;;;0.10;0.10;;;3.40;89.20;;;;;;5051803;28;20056;-72
2024/01/06 08:11:29;;;;;;;0.00;0.00;;;3.40;89.10;;;;;;5032129;28;20527;-71
2024/01/06 08:13:55;;;;;;;0.22;0.22;;;3.40;88.90;;;;;;5049363;28;20059;-71
2024/01/06 08:16:21;;;;;;;0.00;0.00;;;3.40;89.10;;;;;;5034913;28;20049;-71
2024/01/06 08:18:46;;;;;;;0.85;0.85;;;3.40;88.90;;;;;;5033398;28;20044;-70
2024/01/06 08:21:12;;;;;;;0.20;0.20;;;3.40;88.90;;;;;;5051106;28;20511;-70
2024/01/06 08:23:38;;;;;;;0.00;0.00;;;3.40;88.90;;;;;;5034101;28;20052;-70
2024/01/06 08:26:05;;;;;;;0.00;0.00;;;3.50;88.80;;;;;;5051874;28;20045;-71
2024/01/06 08:28:30;;;;;;;0.00;0.00;;;3.50;88.60;;;;;;5051961;28;20041;-71
2024/01/06 08:30:56;;;;;;;0.00;0.00;;;3.60;88.30;;;;;;5050513;28;20494;-70
2024/01/06 08:33:21;;;;;;;1.50;1.40;;;3.60;88.40;;;;;;5052081;28;20064;-70
2024/01/06 08:35:48;;;;;;;0.00;0.00;;;3.60;88.20;;;;;;5042372;28;20045;-71
2024/01/06 08:38:14;;;;;;;0.10;0.10;;;3.50;88.30;;;;;;5052551;28;20049;-71
2024/01/06 08:40:40;;;;;;;0.00;0.00;;;3.40;88.50;;;;;;5051023;28;20503;-71
2024/01/06 08:43:06;;;;;;;0.00;0.00;;;3.50;88.70;;;;;;5052198;28;20064;-71
2024/01/06 08:45:31;;;;;;;0.17;0.17;;;3.40;88.60;;;;;;5051662;28;20045;-71
2024/01/06 08:47:57;;;;;;;0.10;0.10;;;3.50;88.80;;;;;;5052944;28;20130;-71
2024/01/06 08:50:23;;;;;;;0.10;0.10;;;3.40;88.70;;;;;;5052019;28;20053;-71
2024/01/06 08:52:48;;;;;;;0.57;0.57;;;3.50;88.80;;;;;;5051849;28;20033;-71
2024/01/06 08:55:14;;;;;;;0.10;0.10;;;3.50;88.70;;;;;;5048222;28;20041;-71
2024/01/06 08:57:40;;;;;;;0.08;0.08;;;3.60;88.40;;;;;;5025835;28;20037;-71
2024/01/06 09:00:06;;;;;;;0.10;0.10;;;3.60;88.40;;;;;;5026674;28;20102;-70
2024/01/06 09:02:31;;;;;;;0.00;0.00;;;3.50;88.20;;;;;;5049014;28;20128;-70
2024/01/06 09:04:57;;;;;;;0.55;0.55;;;3.60;87.90;;;;;;5030399;28;20571;-71
2024/01/06 09:07:23;;;;;;;0.10;0.10;;;3.50;87.90;;;;;;5047286;28;20044;-71
2024/01/06 09:09:48;;;;;;;0.32;0.32;;;3.40;87.80;;;;;;5046533;28;20040;-71
2024/01/06 09:12:14;;;;;;;1.33;1.25;;;3.40;87.90;;;;;;5046679;28;20029;-71
2024/01/06 09:14:40;;;;;;;0.15;0.15;;;3.40;88.10;;;;;;5046153;28;20380;-71
2024/01/06 09:17:06;;;;;;;0.10;0.10;;;3.30;88.10;;;;;;5048277;28;20637;-71
2024/01/06 09:19:32;;;;;;;0.00;0.00;;;3.30;88.40;;;;;;5047821;28;20041;-71
2024/01/06 09:21:57;;;;;;;0.00;0.00;;;3.30;88.40;;;;;;5048337;28;20048;-70
2024/01/06 09:24:23;;;;;;;0.57;0.57;;;3.40;88.30;;;;;;5049074;28;20048;-71
2024/01/06 09:26:50;;;;;;;0.17;0.17;;;3.40;87.90;;;;;;5046932;28;20426;-71
2024/01/06 09:29:16;;;;;;;0.17;0.17;;;3.40;88.10;;;;;;5047563;28;20049;-71
2024/01/06 09:31:42;;;;;;;0.10;0.10;;;3.40;88.10;;;;;;5048678;28;20049;-71
2024/01/06 09:34:10;;;;;;;0.10;0.10;;;3.40;88.00;;;;;;5048104;28;20044;-71
2024/01/06 09:36:35;;;;;;;0.00;0.00;;;3.30;88.10;;;;;;5048307;28;20041;-71
2024/01/06 09:39:01;;;;;;;0.00;0.00;;;3.40;88.30;;;;;;5047662;28;20443;-70
2024/01/06 09:41:27;;;;;;;4.63;1.25;;;3.40;88.10;;;;;;5046773;28;20080;-72
2024/01/06 09:43:53;;;;;;;0.10;0.10;;;3.50;88.10;;;;;;5046848;28;20102;-72
2024/01/06 09:46:29;;;;;;;0.10;0.10;;;3.50;88.30;;;;;;5047822;28;20562;-72
2024/01/06 09:48:56;;;;;;;0.00;0.00;;;3.40;88.30;;;;;;5047305;28;20124;-72
2024/01/06 09:51:23;;;;;;;0.10;0.10;;;3.40;87.90;;;;;;5047993;28;20037;-72
2024/01/06 09:54:03;;;;;;;0.00;0.00;;;3.40;87.90;;;;;;5046767;28;20045;-72
2024/01/06 09:56:29;;;;;;;0.10;0.10;;;3.40;87.60;;;;;;5044344;28;20163;-69
2024/01/06 09:58:56;;;;;;;0.00;0.00;;;3.40;88.00;;;;;;5046157;28;20045;-72
2024/01/06 10:01:22;;;;;;;0.10;0.10;;;3.40;87.90;;;;;;5025818;28;20501;-71
2024/01/06 10:03:48;;;;;;;0.90;0.73;;;3.60;87.70;;;;;;5046295;28;20052;-71
2024/01/06 10:06:14;;;;;;;0.45;0.45;;;3.60;87.70;;;;;;5047099;28;20056;-70
2024/01/06 10:08:43;;;;;;;0.63;0.63;;;3.60;87.30;;;;;;5046482;28;20041;-70
2024/01/06 10:11:09;;;;;;;0.10;0.10;;;3.50;87.20;;;;;;5047093;28;20053;-70
2024/01/06 10:13:35;;;;;;;0.28;0.28;;;3.50;87.50;;;;;;5047072;28;20049;-70
2024/01/06 10:16:01;;;;;;;0.20;0.20;;;3.60;87.40;;;;;;5047204;28;20046;-70
2024/01/06 10:18:29;;;;;;;0.00;0.00;;;3.50;87.30;;;;;;5026933;28;20049;-70
2024/01/06 10:20:56;;;;;;;0.68;0.68;;;3.50;86.90;;;;;;5047319;28;20091;-70
2024/01/06 10:23:23;;;;;;;0.30;0.30;;;3.40;87.10;;;;;;5046574;28;20049;-70
2024/01/06 10:25:53;;;;;;;0.30;0.30;;;3.60;86.90;;;;;;5047350;28;20071;-71
2024/01/06 10:28:18;;;;;;;0.00;0.00;;;3.50;87.20;;;;;;5047878;28;20079;-71
2024/01/06 10:30:44;;;;;;;0.15;0.15;;;3.40;87.10;;;;;;5039338;28;20103;-70
2024/01/06 10:33:10;;;;;;;0.00;0.00;;;3.40;87.20;;;;;;5032449;28;20045;-69
2024/01/06 10:35:37;;;;;;;0.10;0.10;;;3.50;87.40;;;;;;5047659;28;20052;-70
2024/01/06 10:38:03;;;;;;;0.00;0.00;;;3.40;87.50;;;;;;5046500;28;20098;-69
2024/01/06 10:40:29;;;;;;;0.00;0.00;;;3.50;87.40;;;;;;5029376;28;20076;-69
2024/01/06 10:42:57;;;;;;;1.65;1.55;;;3.50;87.30;;;;;;5048000;28;20111;-69
2024/01/06 10:45:23;;;;;;;2.33;2.13;;;3.50;87.10;;;;;;5047316;28;20048;-69
2024/01/06 10:47:49;;;;;;;3.75;2.13;;;3.40;87.10;;;;;;5047411;28;20037;-70
2024/01/06 10:50:17;;;;;;;0.10;0.10;;;3.40;87.30;;;;;;5037221;28;20132;-70
2024/01/06 10:52:43;;;;;;;0.00;0.00;;;3.40;87.10;;;;;;5047728;28;20495;-67
2024/01/06 10:55:09;;;;;;;0.00;0.00;;;3.40;87.10;;;;;;5056574;28;20051;-68
2024/01/06 10:57:37;;;;;;;0.65;0.55;;;3.40;87.10;;;;;;5047445;28;20526;-67
2024/01/06 11:00:05;;;;;;;0.10;0.10;;;3.40;86.90;;;;;;5046860;28;20049;-68
2024/01/06 11:02:31;;;;;;;0.00;0.00;;;3.40;87.10;;;;;;5046337;28;20040;-67
2024/01/06 11:04:57;;;;;;;0.00;0.00;;;3.30;87.20;;;;;;5047385;28;20083;-68
2024/01/06 11:07:25;;;;;;;0.10;0.10;;;3.50;87.20;;;;;;5047079;28;20610;-67
2024/01/06 11:09:58;;;;;;;0.00;0.00;;;3.40;87.20;;;;;;5046645;28;20571;-67
2024/01/06 11:12:26;;;;;;;0.00;0.00;;;3.40;87.20;;;;;;5046093;28;20045;-67
2024/01/06 11:14:52;;;;;;;0.93;0.90;;;3.40;87.30;;;;;;5030307;28;20547;-67
2024/01/06 11:17:58;;;;;;;0.00;0.00;;;3.50;87.00;;;;;;5027168;28;20076;-68
2024/01/06 11:20:27;;;;;;;0.52;0.52;;;3.50;87.30;;;;;;5043822;28;20055;-68
2024/01/06 11:22:53;;;;;;;0.00;0.00;;;3.40;87.30;;;;;;5046936;28;20040;-67
2024/01/06 11:25:20;;;;;;;1.65;1.20;;;3.50;87.20;;;;;;5046787;28;20069;-67
2024/01/06 11:27:48;;;;;;;0.00;0.00;;;3.50;87.30;;;;;;5047884;28;20056;-67
2024/01/06 11:30:24;;;;;;;0.08;0.08;;;3.60;87.00;;;;;;5049548;28;20041;-70
2024/01/06 11:32:55;;;;;;;0.10;0.10;;;3.40;87.00;;;;;;5045179;28;20116;-68
2024/01/06 11:35:21;;;;;;;0.00;0.00;;;3.50;87.30;;;;;;5046160;28;20113;-69
2024/01/06 11:37:47;;;;;;;0.28;0.28;;;3.60;86.90;;;;;;5042216;28;20116;-69
2024/01/06 11:40:24;;;;;;;0.10;0.10;;;3.60;86.60;;;;;;5045835;28;20447;-69
2024/01/06 11:43:00;;;;;;;0.00;0.00;;;3.50;86.50;;;;;;5043236;28;20079;-69
2024/01/06 11:45:25;;;;;;;0.30;0.30;;;3.50;86.30;;;;;;5042619;28;20044;-69
2024/01/06 11:48:00;;;;;;;0.68;0.55;;;3.40;86.30;;;;;;5047097;28;20033;-68
2024/01/06 11:50:26;;;;;;;0.00;0.00;;;3.40;86.40;;;;;;5046471;28;20067;-68
2024/01/06 11:52:53;;;;;;;0.65;0.65;;;3.40;85.90;;;;;;5045878;28;20037;-69
2024/01/06 11:55:20;;;;;;;0.05;0.05;;;3.50;86.10;;;;;;5044052;28;20047;-69
2024/01/06 11:57:47;;;;;;;0.10;0.10;;;3.40;85.80;;;;;;5043607;28;20400;-68
2024/01/06 12:00:15;;;;;;;0.00;0.00;;;3.40;85.80;;;;;;5046310;28;20502;-68
2024/01/06 12:02:41;;;;;;;4.38;1.75;;;3.40;85.50;;;;;;5047000;28;20097;-69
2024/01/06 12:05:17;;;;;;;0.10;0.10;;;3.40;85.80;;;;;;5046856;28;20037;-68
2024/01/06 12:07:43;;;;;;;0.00;0.00;;;3.30;85.30;;;;;;5046706;28;20044;-69
2024/01/06 12:10:10;;;;;;;0.15;0.15;;;3.30;85.80;;;;;;5045797;28;20053;-68
2024/01/06 12:12:35;;;;;;;0.40;0.40;;;3.30;85.80;;;;;;5045502;28;20045;-69
2024/01/06 12:15:01;;;;;;;0.00;0.00;;;3.30;85.50;;;;;;5045984;28;20037;-69
2024/01/06 12:17:31;;;;;;;0.00;0.00;;;3.30;85.60;;;;;;5045519;28;20041;-69
2024/01/06 12:19:57;;;;;;;0.10;0.10;;;3.20;85.60;;;;;;5045511;28;20044;-68
2024/01/06 12:22:23;;;;;;;0.10;0.10;;;3.30;85.80;;;;;;5045362;28;20614;-69
2024/01/06 12:24:51;;;;;;;0.43;0.43;;;3.20;85.40;;;;;;5045827;28;20036;-68
2024/01/06 12:27:18;;;;;;;0.20;0.20;;;3.20;85.70;;;;;;5044329;28;20037;-69
2024/01/06 12:29:44;;;;;;;0.10;0.10;;;3.30;85.60;;;;;;5046026;28;20510;-70
2024/01/06 12:32:13;;;;;;;0.52;0.52;;;3.20;85.60;;;;;;5046333;28;20037;-70
2024/01/06 12:34:39;;;;;;;0.10;0.10;;;3.30;85.30;;;;;;5049567;28;20461;-69
2024/01/06 12:37:05;;;;;;;0.00;0.00;;;3.30;85.10;;;;;;5048823;28;20045;-68
2024/01/06 12:39:32;;;;;;;4.47;2.72;;;3.30;85.60;;;;;;5042911;28;20495;-68
2024/01/06 12:42:00;;;;;;;0.00;0.00;;;3.40;85.10;;;;;;5042343;28;20057;-69
2024/01/06 12:44:27;;;;;;;0.22;0.22;;;3.30;84.60;;;;;;5013347;28;20052;-69
2024/01/06 12:46:52;;;;;;;0.20;0.20;;;3.30;84.90;;;;;;5049262;28;20045;-69
2024/01/06 12:49:18;;;;;;;0.30;0.30;;;3.40;84.90;;;;;;5031351;28;20037;-69
2024/01/06 12:51:44;;;;;;;0.08;0.08;;;3.20;84.90;;;;;;5037543;28;21175;-69
2024/01/06 12:54:10;;;;;;;0.00;0.00;;;3.30;84.90;;;;;;5048185;28;20056;-69